Time,TemperatureF,DewpointF,PressureIn,WindDirection,WindDirectionDegrees,WindSpeedMPH,WindSpeedGustMPH,Humidity,HourlyPrecipIn,Conditions,Clouds,dailyrainin,SoftwareType,DateUTC
2013-02-05 00:02:00,52.0,47.0,30.09,NW,322,0.0,0.0,82,0.00,,,0.00,,2013-02-05 05:02:00,
2013-02-05 00:11:00,52.0,47.0,30.09,NW,322,0.0,0.0,82,0.00,,,0.00,,2013-02-05 05:11:00,
2013-02-05 00:22:00,52.0,46.0,30.09,NW,322,0.0,0.0,81,0.00,,,0.00,,2013-02-05 05:22:00,
2013-02-05 00:32:00,52.0,47.0,30.09,NW,322,0.0,0.0,82,0.00,,,0.00,,2013-02-05 05:32:00,
2013-02-05 00:42:00,52.0,47.0,30.09,NW,322,0.0,0.0,82,0.00,,,0.00,,2013-02-05 05:42:00,
2013-02-05 00:52:00,51.0,45.0,30.09,NW,322,0.0,0.0,81,0.00,,,0.00,,2013-02-05 05:52:00,
2013-02-05 01:02:00,51.0,46.0,30.09,NW,322,0.0,0.0,82,0.00,,,0.00,,2013-02-05 06:02:00,
2013-02-05 01:11:00,51.0,46.0,30.09,NW,322,0.0,0.0,82,0.00,,,0.00,,2013-02-05 06:11:00,
2013-02-05 01:21:00,51.0,46.0,30.09,NW,322,0.0,0.0,82,0.00,,,0.00,,2013-02-05 06:21:00,
2013-02-05 01:32:00,51.0,46.0,30.09,NW,322,0.0,0.0,82,0.00,,,0.00,,2013-02-05 06:32:00,
2013-02-05 01:42:00,51.0,46.0,30.09,NW,322,0.0,0.0,82,0.00,,,0.00,,2013-02-05 06:42:00,
2013-02-05 01:52:00,51.0,46.0,30.08,NW,322,0.0,0.0,83,0.00,,,0.00,,2013-02-05 06:52:00,
2013-02-05 02:01:00,51.0,46.0,30.08,NW,322,0.0,0.0,83,0.00,,,0.00,,2013-02-05 07:01:00,
2013-02-05 02:11:00,51.0,46.0,30.08,NW,322,0.0,0.0,83,0.00,,,0.00,,2013-02-05 07:11:00,
2013-02-05 02:22:00,51.0,46.0,30.07,NW,322,0.0,0.0,82,0.00,,,0.00,,2013-02-05 07:22:00,
2013-02-05 02:32:00,50.0,45.0,30.07,NW,322,0.0,0.0,82,0.00,,,0.00,,2013-02-05 07:32:00,
2013-02-05 02:42:00,50.0,45.0,30.07,NW,322,0.0,0.0,82,0.00,,,0.00,,2013-02-05 07:42:00,
2013-02-05 02:52:00,50.0,45.0,30.06,NW,322,0.0,0.0,83,0.00,,,0.00,,2013-02-05 07:52:00,
2013-02-05 03:01:00,49.0,44.0,30.06,NW,322,0.0,0.0,83,0.00,,,0.00,,2013-02-05 08:01:00,
2013-02-05 03:11:00,49.0,44.0,30.06,NW,322,0.0,0.0,83,0.00,,,0.00,,2013-02-05 08:11:00,
2013-02-05 03:21:00,48.0,43.0,30.06,NW,322,0.0,0.0,83,0.00,,,0.00,,2013-02-05 08:21:00,
2013-02-05 03:31:00,48.0,43.0,30.06,NW,322,0.0,0.0,84,0.00,,,0.00,,2013-02-05 08:31:00,
2013-02-05 03:42:00,48.0,43.0,30.06,NW,322,0.0,0.0,84,0.00,,,0.00,,2013-02-05 08:42:00,
2013-02-05 03:52:00,49.0,44.0,30.05,NW,322,0.0,0.0,84,0.00,,,0.00,,2013-02-05 08:52:00,
2013-02-05 04:02:00,49.0,44.0,30.05,NW,322,0.0,0.0,84,0.00,,,0.00,,2013-02-05 09:02:00,
2013-02-05 04:11:00,48.0,43.0,30.05,NW,322,0.0,0.0,84,0.00,,,0.00,,2013-02-05 09:11:00,
2013-02-05 04:22:00,48.0,43.0,30.05,NW,322,0.0,0.0,84,0.00,,,0.00,,2013-02-05 09:22:00,
2013-02-05 04:32:00,48.0,43.0,30.05,NW,322,0.0,0.0,84,0.00,,,0.00,,2013-02-05 09:32:00,
2013-02-05 04:42:00,48.0,43.0,30.05,NW,322,0.0,0.0,84,0.00,,,0.00,,2013-02-05 09:42:00,
2013-02-05 04:52:00,48.0,43.0,30.05,NW,322,0.0,0.0,84,0.00,,,0.00,,2013-02-05 09:52:00,
2013-02-05 05:02:00,47.0,42.0,30.04,NW,322,0.0,0.0,84,0.00,,,0.00,,2013-02-05 10:02:00,
2013-02-05 05:11:00,47.0,43.0,30.04,NW,322,0.0,0.0,85,0.00,,,0.00,,2013-02-05 10:11:00,
2013-02-05 05:21:00,47.0,43.0,30.04,NW,322,0.0,0.0,85,0.00,,,0.00,,2013-02-05 10:21:00,
2013-02-05 05:32:00,47.0,42.0,30.04,NW,322,0.0,0.0,84,0.00,,,0.00,,2013-02-05 10:32:00,
2013-02-05 05:42:00,47.0,42.0,30.04,NW,322,0.0,0.0,84,0.00,,,0.00,,2013-02-05 10:42:00,
2013-02-05 05:52:00,47.0,43.0,30.05,NW,322,0.0,0.0,85,0.00,,,0.00,,2013-02-05 10:52:00,
2013-02-05 06:01:00,47.0,43.0,30.04,NW,322,0.0,0.0,85,0.00,,,0.00,,2013-02-05 11:01:00,
2013-02-05 06:11:00,47.0,43.0,30.04,NW,322,0.0,0.0,85,0.00,,,0.00,,2013-02-05 11:11:00,
2013-02-05 06:22:00,47.0,43.0,30.04,NW,322,0.0,0.0,85,0.00,,,0.00,,2013-02-05 11:22:00,
2013-02-05 06:32:00,47.0,43.0,30.05,NW,322,0.0,0.0,85,0.00,,,0.00,,2013-02-05 11:32:00,
2013-02-05 06:42:00,47.0,43.0,30.05,NW,322,0.0,0.0,85,0.00,,,0.00,,2013-02-05 11:42:00,
2013-02-05 06:52:00,48.0,44.0,30.04,NW,322,0.0,0.0,85,0.00,,,0.00,,2013-02-05 11:52:00,
2013-02-05 07:01:00,48.0,44.0,30.05,NW,322,0.0,0.0,85,0.00,,,0.00,,2013-02-05 12:01:00,
2013-02-05 07:12:00,48.0,44.0,30.05,NW,322,0.0,0.0,85,0.00,,,0.00,,2013-02-05 12:12:00,
2013-02-05 07:22:00,47.0,43.0,30.05,NW,322,0.0,0.0,85,0.00,,,0.00,,2013-02-05 12:22:00,
2013-02-05 07:32:00,46.0,42.0,30.05,NW,322,0.0,0.0,85,0.00,,,0.00,,2013-02-05 12:32:00,
2013-02-05 07:42:00,46.0,42.0,30.05,NW,322,0.0,0.0,85,0.00,,,0.00,,2013-02-05 12:42:00,
2013-02-05 07:52:00,46.0,42.0,30.06,NW,322,0.0,0.0,85,0.00,,,0.00,,2013-02-05 12:52:00,
2013-02-05 08:02:00,47.0,43.0,30.06,NW,322,0.0,0.0,85,0.00,,,0.00,,2013-02-05 13:02:00,
2013-02-05 08:12:00,47.0,43.0,30.06,NW,322,0.0,0.0,85,0.00,,,0.00,,2013-02-05 13:12:00,
2013-02-05 08:22:00,50.0,46.0,30.07,NW,322,0.0,0.0,85,0.00,,,0.00,,2013-02-05 13:22:00,
2013-02-05 08:32:00,54.0,49.0,30.07,NW,322,0.0,0.0,83,0.00,,,0.00,,2013-02-05 13:32:00,
2013-02-05 08:42:00,54.0,49.0,30.07,NW,322,0.0,0.0,83,0.00,,,0.00,,2013-02-05 13:42:00,
2013-02-05 08:52:00,58.0,50.0,30.07,NW,322,0.0,0.0,75,0.00,,,0.00,,2013-02-05 13:52:00,
2013-02-05 09:01:00,61.0,49.0,30.08,NW,322,0.0,0.0,65,0.00,,,0.00,,2013-02-05 14:01:00,
2013-02-05 09:21:00,64.0,49.0,30.08,NW,322,0.0,0.0,58,0.00,,,0.00,,2013-02-05 14:21:00,
2013-02-05 09:32:00,66.0,50.0,30.09,NW,322,0.0,3.0,56,0.00,,,0.00,,2013-02-05 14:32:00,
2013-02-05 09:52:00,68.0,51.0,30.09,North,11,1.0,4.0,55,0.00,,,0.00,,2013-02-05 14:52:00,
2013-02-05 10:02:00,69.0,51.0,30.10,NNE,12,1.0,4.0,52,0.00,,,0.00,,2013-02-05 15:02:00,
2013-02-05 10:21:00,71.0,51.0,30.10,NNE,13,1.0,5.0,50,0.00,,,0.00,,2013-02-05 15:21:00,
2013-02-05 10:32:00,71.0,51.0,30.10,South,172,2.0,8.0,50,0.00,,,0.00,,2013-02-05 15:32:00,
2013-02-05 10:42:00,71.0,51.0,30.10,South,172,2.0,8.0,50,0.00,,,0.00,,2013-02-05 15:42:00,
2013-02-05 10:52:00,72.0,51.0,30.09,SSE,150,2.0,7.0,48,0.00,,,0.00,,2013-02-05 15:52:00,
2013-02-05 11:01:00,73.0,52.0,30.09,SE,136,4.0,8.0,48,0.00,,,0.00,,2013-02-05 16:01:00,
2013-02-05 11:11:00,73.0,52.0,30.09,SE,136,4.0,8.0,48,0.00,,,0.00,,2013-02-05 16:11:00,
2013-02-05 11:22:00,73.0,53.0,30.09,WSW,250,5.0,10.0,49,0.00,,,0.00,,2013-02-05 16:22:00,
2013-02-05 11:32:00,74.0,54.0,30.09,SSE,150,5.0,10.0,49,0.00,,,0.00,,2013-02-05 16:32:00,
2013-02-05 11:42:00,74.0,54.0,30.09,SSE,150,5.0,10.0,49,0.00,,,0.00,,2013-02-05 16:42:00,
2013-02-05 11:52:00,74.0,54.0,30.09,South,191,4.0,10.0,49,0.00,,,0.00,,2013-02-05 16:52:00,
2013-02-05 12:01:00,75.0,54.0,30.08,WSW,239,3.0,8.0,48,0.00,,,0.00,,2013-02-05 17:01:00,
2013-02-05 12:11:00,75.0,54.0,30.08,WSW,239,3.0,8.0,48,0.00,,,0.00,,2013-02-05 17:11:00,
2013-02-05 12:22:00,75.0,54.0,30.08,SW,221,3.0,13.0,48,0.00,,,0.00,,2013-02-05 17:22:00,
2013-02-05 12:32:00,75.0,53.0,30.08,SSW,197,3.0,8.0,46,0.00,,,0.00,,2013-02-05 17:32:00,
2013-02-05 12:42:00,75.0,53.0,30.08,SSW,197,3.0,8.0,46,0.00,,,0.00,,2013-02-05 17:42:00,
2013-02-05 12:52:00,78.0,55.0,30.07,West,269,1.0,8.0,45,0.00,,,0.00,,2013-02-05 17:52:00,
2013-02-05 13:02:00,79.0,55.0,30.06,West,266,2.0,6.0,44,0.00,,,0.00,,2013-02-05 18:02:00,
2013-02-05 13:11:00,79.0,55.0,30.06,West,266,2.0,6.0,44,0.00,,,0.00,,2013-02-05 18:11:00,
2013-02-05 13:22:00,78.0,55.0,30.06,SSW,201,0.0,4.0,45,0.00,,,0.00,,2013-02-05 18:22:00,
2013-02-05 13:32:00,79.0,55.0,30.05,WSW,251,0.0,7.0,43,0.00,,,0.00,,2013-02-05 18:32:00,
2013-02-05 13:42:00,79.0,55.0,30.05,WSW,251,0.0,7.0,43,0.00,,,0.00,,2013-02-05 18:42:00,
2013-02-05 13:52:00,79.0,55.0,30.04,WNW,290,0.0,6.0,43,0.00,,,0.00,,2013-02-05 18:52:00,
2013-02-05 14:02:00,79.0,55.0,30.03,NW,307,1.0,7.0,44,0.00,,,0.00,,2013-02-05 19:02:00,
2013-02-05 14:11:00,79.0,55.0,30.03,NW,307,1.0,7.0,44,0.00,,,0.00,,2013-02-05 19:11:00,
2013-02-05 14:22:00,78.0,54.0,30.02,WNW,284,4.0,9.0,44,0.00,,,0.00,,2013-02-05 19:22:00,
2013-02-05 14:32:00,78.0,54.0,30.02,West,266,4.0,10.0,43,0.00,,,0.00,,2013-02-05 19:32:00,
2013-02-05 14:42:00,78.0,54.0,30.02,West,266,4.0,10.0,43,0.00,,,0.00,,2013-02-05 19:42:00,
2013-02-05 14:52:00,82.0,54.0,30.01,North,1,0.0,6.0,38,0.00,,,0.00,,2013-02-05 19:52:00,
2013-02-05 15:02:00,81.0,54.0,30.01,West,280,3.0,8.0,40,0.00,,,0.00,,2013-02-05 20:02:00,
2013-02-05 15:11:00,81.0,54.0,30.01,West,280,3.0,8.0,40,0.00,,,0.00,,2013-02-05 20:11:00,
2013-02-05 15:21:00,81.0,54.0,30.01,NW,316,1.0,6.0,40,0.00,,,0.00,,2013-02-05 20:21:00,
2013-02-05 15:32:00,80.0,55.0,30.01,WNW,300,0.0,10.0,42,0.00,,,0.00,,2013-02-05 20:32:00,
2013-02-05 15:42:00,80.0,55.0,30.01,WNW,300,0.0,10.0,42,0.00,,,0.00,,2013-02-05 20:42:00,
2013-02-05 15:52:00,79.0,55.0,30.01,WSW,237,2.0,7.0,43,0.00,,,0.00,,2013-02-05 20:52:00,
2013-02-05 16:02:00,80.0,54.0,30.01,WNW,290,4.0,7.0,41,0.00,,,0.00,,2013-02-05 21:02:00,
2013-02-05 16:11:00,80.0,54.0,30.01,WNW,290,4.0,7.0,41,0.00,,,0.00,,2013-02-05 21:11:00,
2013-02-05 16:22:00,79.0,55.0,30.01,West,278,3.0,8.0,43,0.00,,,0.00,,2013-02-05 21:22:00,
2013-02-05 16:32:00,78.0,56.0,30.01,SSW,211,2.0,7.0,46,0.00,,,0.00,,2013-02-05 21:32:00,
2013-02-05 16:42:00,78.0,56.0,30.01,SSW,211,2.0,7.0,46,0.00,,,0.00,,2013-02-05 21:42:00,
2013-02-05 16:52:00,78.0,57.0,30.01,SW,235,3.0,8.0,48,0.00,,,0.00,,2013-02-05 21:52:00,
2013-02-05 17:01:00,77.0,56.0,30.01,WSW,240,0.0,6.0,49,0.00,,,0.00,,2013-02-05 22:01:00,
2013-02-05 17:11:00,77.0,56.0,30.01,WSW,240,0.0,6.0,49,0.00,,,0.00,,2013-02-05 22:11:00,
2013-02-05 17:22:00,77.0,56.0,30.01,WNW,293,0.0,6.0,49,0.00,,,0.00,,2013-02-05 22:22:00,
2013-02-05 17:32:00,76.0,57.0,30.01,West,279,0.0,7.0,51,0.00,,,0.00,,2013-02-05 22:32:00,
2013-02-05 17:42:00,76.0,57.0,30.01,West,279,0.0,7.0,51,0.00,,,0.00,,2013-02-05 22:42:00,
2013-02-05 17:52:00,75.0,57.0,30.01,West,281,2.0,6.0,53,0.00,,,0.00,,2013-02-05 22:52:00,
2013-02-05 18:02:00,74.0,56.0,30.01,West,281,0.0,5.0,54,0.00,,,0.00,,2013-02-05 23:02:00,
2013-02-05 18:11:00,74.0,56.0,30.01,West,281,0.0,5.0,54,0.00,,,0.00,,2013-02-05 23:11:00,
2013-02-05 18:22:00,73.0,56.0,30.01,West,281,0.0,0.0,56,0.00,,,0.00,,2013-02-05 23:22:00,
2013-02-05 18:32:00,72.0,56.0,30.02,West,281,0.0,1.0,58,0.00,,,0.00,,2013-02-05 23:32:00,
2013-02-05 18:42:00,72.0,56.0,30.02,West,281,0.0,1.0,58,0.00,,,0.00,,2013-02-05 23:42:00,
2013-02-05 18:53:00,71.0,56.0,30.02,West,281,0.0,0.0,60,0.00,,,0.00,,2013-02-05 23:53:00,
2013-02-05 19:02:00,69.0,56.0,30.02,West,281,0.0,0.0,64,0.00,,,0.00,,2013-02-06 00:02:00,
2013-02-05 19:12:00,69.0,56.0,30.02,West,281,0.0,0.0,64,0.00,,,0.00,,2013-02-06 00:12:00,
2013-02-05 19:22:00,68.0,56.0,30.02,West,281,0.0,0.0,66,0.00,,,0.00,,2013-02-06 00:22:00,
2013-02-05 19:32:00,67.0,56.0,30.03,West,281,0.0,0.0,67,0.00,,,0.00,,2013-02-06 00:32:00,
2013-02-05 19:42:00,67.0,56.0,30.03,West,281,0.0,0.0,67,0.00,,,0.00,,2013-02-06 00:42:00,
2013-02-05 19:52:00,66.0,56.0,30.03,West,281,0.0,0.0,69,0.00,,,0.00,,2013-02-06 00:52:00,
2013-02-05 20:02:00,66.0,56.0,30.03,West,281,0.0,0.0,71,0.00,,,0.00,,2013-02-06 01:02:00,
2013-02-05 20:12:00,66.0,56.0,30.03,West,281,0.0,0.0,71,0.00,,,0.00,,2013-02-06 01:12:00,
2013-02-05 20:22:00,65.0,56.0,30.03,West,281,0.0,0.0,72,0.00,,,0.00,,2013-02-06 01:22:00,
2013-02-05 20:32:00,65.0,56.0,30.04,West,281,0.0,0.0,73,0.00,,,0.00,,2013-02-06 01:32:00,
2013-02-05 20:42:00,65.0,56.0,30.04,West,281,0.0,0.0,73,0.00,,,0.00,,2013-02-06 01:42:00,
2013-02-05 20:53:00,65.0,56.0,30.04,West,281,0.0,0.0,74,0.00,,,0.00,,2013-02-06 01:53:00,
2013-02-05 21:02:00,65.0,57.0,30.05,West,281,0.0,0.0,75,0.00,,,0.00,,2013-02-06 02:02:00,
2013-02-05 21:11:00,65.0,57.0,30.05,West,281,0.0,0.0,75,0.00,,,0.00,,2013-02-06 02:11:00,
2013-02-05 21:22:00,65.0,57.0,30.05,West,281,0.0,0.0,75,0.00,,,0.00,,2013-02-06 02:22:00,
2013-02-05 21:32:00,65.0,57.0,30.05,West,281,0.0,0.0,76,0.00,,,0.00,,2013-02-06 02:32:00,
2013-02-05 21:42:00,65.0,57.0,30.05,West,281,0.0,0.0,76,0.00,,,0.00,,2013-02-06 02:42:00,
2013-02-05 21:53:00,64.0,57.0,30.05,West,281,0.0,0.0,77,0.00,,,0.00,,2013-02-06 02:53:00,
2013-02-05 22:03:00,63.0,56.0,30.06,West,281,0.0,0.0,79,0.00,,,0.00,,2013-02-06 03:03:00,
2013-02-05 22:12:00,63.0,56.0,30.06,West,281,0.0,0.0,79,0.00,,,0.00,,2013-02-06 03:12:00,
2013-02-05 22:22:00,63.0,57.0,30.05,West,281,0.0,0.0,80,0.00,,,0.00,,2013-02-06 03:22:00,
2013-02-05 22:32:00,63.0,57.0,30.06,West,281,0.0,0.0,80,0.00,,,0.00,,2013-02-06 03:32:00,
2013-02-05 22:42:00,63.0,57.0,30.06,West,281,0.0,0.0,80,0.00,,,0.00,,2013-02-06 03:42:00,
2013-02-05 22:53:00,63.0,57.0,30.06,West,281,0.0,0.0,80,0.00,,,0.00,,2013-02-06 03:53:00,
2013-02-05 23:02:00,63.0,57.0,30.06,West,281,0.0,0.0,80,0.00,,,0.00,,2013-02-06 04:02:00,
2013-02-05 23:11:00,63.0,57.0,30.06,West,281,0.0,0.0,80,0.00,,,0.00,,2013-02-06 04:11:00,
2013-02-05 23:22:00,62.0,56.0,30.07,West,281,0.0,2.0,81,0.00,,,0.00,,2013-02-06 04:22:00,
2013-02-05 23:32:00,63.0,57.0,30.07,West,281,0.0,0.0,81,0.00,,,0.00,,2013-02-06 04:32:00,
2013-02-05 23:42:00,63.0,57.0,30.07,West,281,0.0,0.0,81,0.00,,,0.00,,2013-02-06 04:42:00,
2013-02-05 23:52:00,63.0,57.0,30.07,West,281,0.0,0.0,81,0.00,,,0.00,,2013-02-06 04:52:00,